Terminal Aerodrome Forecast
Issued by NWS

Current Version | Previous Version | Text Only | Print | Product List | Glossary On
Versions: 1 2 3 4 5 6 7 8 9 10 11 12 13 14 15 16 17 18 19 20 21 22 23 24 25 26 27 28 29 30 31 32
000 FTUS42 KRAH 090359 AAA TAFRWI TAF AMD KRWI 090359Z 0904/0924 20008KT 5SM BR SCT150 TEMPO 0904/0907 1/2SM FG OVC002 FM090700 27006KT P6SM SCT050 BKN100 FM091600 26011G18KT P6SM BKN050=

USA.gov is the U.S. government's official web portal to all federal, state and local government web resources and services.